Time;durP1;ratioP1;P1;durP2;ratioP2;P2;SDS_P1;SDS_P2;PMS_P1;PMS_P2;Temp;Humidity;BMP_temperature;BMP_pressure;BME280_temperature;BME280_humidity;BME280_pressure;Samples;Min_cycle;Max_cycle;Signal;HPM_P1;HPM_P2
2022/07/29 00:02:26;;;;;;;13.10;9.25;;;;;;;23.37;58.43;95393.78;5044229;28;20135;-85
2022/07/29 00:04:51;;;;;;;15.00;9.15;;;;;;;23.10;58.17;95365.66;5044696;28;20044;-85
2022/07/29 00:07:17;;;;;;;16.40;9.30;;;;;;;22.14;58.73;95232.59;5063178;28;20086;-85
2022/07/29 00:09:42;;;;;;;13.68;8.95;;;;;;;22.89;58.97;95389.44;5044776;28;20032;-84
2022/07/29 00:12:08;;;;;;;17.65;10.05;;;;;;;23.05;58.87;95401.06;5045094;28;20495;-84
2022/07/29 00:14:33;;;;;;;13.75;9.40;;;;;;;23.09;59.03;95413.56;5044206;28;20028;-86
2022/07/29 00:16:58;;;;;;;13.98;9.73;;;;;;;22.21;58.97;95266.00;5063027;28;20027;-84
2022/07/29 00:19:24;;;;;;;14.23;9.35;;;;;;;22.74;59.31;95355.84;5062371;28;20048;-84
2022/07/29 00:21:49;;;;;;;14.35;9.30;;;;;;;22.44;58.63;95312.16;5043286;28;20029;-85
2022/07/29 00:24:15;;;;;;;11.18;9.52;;;;;;;23.11;58.29;95409.75;5062623;28;20714;-84
2022/07/29 00:26:40;;;;;;;12.75;9.55;;;;;;;22.47;59.50;95343.09;5045105;28;20082;-85
2022/07/29 00:29:06;;;;;;;11.10;8.65;;;;;;;22.69;59.76;95383.09;5044086;28;20059;-84
2022/07/29 00:31:31;;;;;;;12.95;8.93;;;;;;;22.60;59.46;95337.28;5063162;28;20041;-84
2022/07/29 00:33:56;;;;;;;15.00;8.45;;;;;;;22.64;58.63;95332.00;5043627;28;20078;-84
2022/07/29 00:36:22;;;;;;;12.35;9.18;;;;;;;22.56;58.78;95335.66;5044587;28;20029;-85
2022/07/29 00:38:48;;;;;;;11.90;10.13;;;;;;;22.28;59.18;95301.28;5044449;28;20048;-84
2022/07/29 00:41:14;;;;;;;13.25;9.52;;;;;;;22.77;59.42;95376.78;5062237;28;20032;-84
2022/07/29 00:43:40;;;;;;;14.30;9.27;;;;;;;23.04;59.37;95419.22;5043901;28;20074;-85
2022/07/29 00:46:06;;;;;;;16.38;9.55;;;;;;;22.67;59.22;95355.63;5043051;28;20431;-84
2022/07/29 00:48:31;;;;;;;16.70;9.77;;;;;;;22.78;59.38;95396.50;5043474;28;20036;-84
2022/07/29 00:50:58;;;;;;;15.48;9.73;;;;;;;23.09;59.53;95424.41;5062519;28;20036;-84
2022/07/29 00:53:24;;;;;;;11.70;9.63;;;;;;;22.30;60.09;95352.28;5043174;28;20040;-84
2022/07/29 00:55:50;;;;;;;17.40;10.48;;;;;;;22.23;60.19;95360.19;5061247;28;20103;-84
2022/07/29 00:58:16;;;;;;;15.93;11.05;;;;;;;22.38;61.08;95435.13;5043285;28;20135;-84
2022/07/29 01:00:42;;;;;;;15.65;10.40;;;;;;;22.20;60.86;95387.91;5062456;28;20067;-85
2022/07/29 01:03:08;;;;;;;25.45;13.02;;;;;;;21.58;62.54;95351.31;5063147;28;20604;-85
2022/07/29 01:05:35;;;;;;;17.52;12.65;;;;;;;21.47;63.08;95344.78;5062007;28;20068;-84
2022/07/29 01:08:01;;;;;;;19.05;14.68;;;;;;;21.99;63.50;95427.78;5043258;28;20336;-84
2022/07/29 01:10:27;;;;;;;17.42;14.15;;;;;;;21.80;63.92;95428.34;5043187;28;20040;-85
2022/07/29 01:12:56;;;;;;;21.63;14.60;;;;;;;21.10;64.68;95341.28;5043122;28;20036;-84
2022/07/29 01:15:21;;;;;;;18.55;14.20;;;;;;;21.66;64.66;95417.88;5043275;28;20043;-84
2022/07/29 01:18:16;;;;;;;20.90;15.60;;;;;;;21.46;65.21;95419.53;5061130;28;20036;-85
2022/07/29 01:21:09;;;;;;;22.67;15.60;;;;;;;21.61;64.95;95414.59;5043017;28;20039;-85
2022/07/29 01:23:51;;;;;;;23.80;16.20;;;;;;;21.53;65.28;95417.06;5043095;28;20501;-85
2022/07/29 01:26:46;;;;;;;24.95;16.52;;;;;;;21.58;65.12;95413.38;5042905;28;20796;-85
2022/07/29 01:29:34;;;;;;;17.23;14.45;;;;;;;21.82;64.39;95407.94;5061591;28;20036;-84
2022/07/29 01:32:10;;;;;;;23.88;16.67;;;;;;;21.67;64.23;95381.66;5060914;28;20072;-85
2022/07/29 01:35:06;;;;;;;26.80;15.80;;;;;;;21.11;63.53;95261.94;5043175;28;20036;-84
2022/07/29 01:37:45;;;;;;;23.30;15.50;;;;;;;21.83;63.14;95365.53;5039489;28;20032;-86
2022/07/29 01:40:34;;;;;;;19.63;15.32;;;;;;;22.09;63.62;95403.78;5033203;28;20031;-85
2022/07/29 01:43:07;;;;;;;20.40;14.48;;;;;;;21.22;63.13;95255.00;5043279;28;20156;-86
2022/07/29 01:45:40;;;;;;;18.77;14.18;;;;;;;21.63;62.64;95291.69;5042150;28;20502;-85
2022/07/29 01:48:14;;;;;;;25.75;15.40;;;;;;;22.30;62.62;95390.91;5042956;28;20438;-85
2022/07/29 01:50:47;;;;;;;22.30;14.93;;;;;;;22.17;62.86;95373.16;5042504;28;20037;-85
2022/07/29 01:53:18;;;;;;;17.88;14.25;;;;;;;22.34;62.60;95399.13;5042956;28;20137;-85
2022/07/29 01:55:45;;;;;;;28.75;15.35;;;;;;;21.93;62.53;95346.19;5042115;28;20437;-85
2022/07/29 01:58:14;;;;;;;19.35;14.82;;;;;;;21.84;62.63;95338.22;5060717;28;20036;-86
2022/07/29 02:00:41;;;;;;;22.40;14.13;;;;;;;21.99;62.85;95360.25;5059905;28;20036;-85
2022/07/29 02:03:10;;;;;;;21.25;14.98;;;;;;;21.40;62.57;95253.63;5042518;28;20164;-86
2022/07/29 02:05:40;;;;;;;20.77;14.27;;;;;;;21.88;62.64;95319.44;5042521;28;20041;-85
2022/07/29 02:08:08;;;;;;;21.92;14.77;;;;;;;22.06;62.46;95350.44;5042515;28;20832;-85
2022/07/29 02:10:35;;;;;;;20.95;14.57;;;;;;;21.95;62.66;95330.44;5060085;28;20078;-85
2022/07/29 02:13:02;;;;;;;20.20;14.68;;;;;;;22.25;63.00;95364.13;5041941;28;20047;-85
2022/07/29 02:15:31;;;;;;;18.92;14.30;;;;;;;22.21;63.13;95365.94;5060261;28;20036;-85
2022/07/29 02:18:22;;;;;;;20.50;14.63;;;;;;;22.07;63.55;95378.25;5040926;28;20048;-85
2022/07/29 02:20:50;;;;;;;18.53;13.43;;;;;;;22.17;63.70;95381.28;5050374;28;20044;-85
2022/07/29 02:23:19;;;;;;;16.10;13.05;;;;;;;21.64;63.28;95295.97;5042291;28;20521;-85
2022/07/29 02:25:49;;;;;;;21.95;14.52;;;;;;;21.41;63.35;95255.22;5041422;28;20568;-86
2022/07/29 02:28:16;;;;;;;21.30;13.88;;;;;;;21.62;63.15;95309.00;5060413;28;20040;-85
2022/07/29 02:30:42;;;;;;;20.55;12.77;;;;;;;21.62;63.23;95295.53;5060145;28;20044;-85
2022/07/29 02:33:12;;;;;;;23.80;14.20;;;;;;;22.14;63.56;95381.16;5060621;28;20048;-86
2022/07/29 02:35:40;;;;;;;19.42;14.30;;;;;;;21.66;63.79;95296.44;5041878;28;20525;-85
2022/07/29 02:40:53;;;;;;;19.92;12.90;;;;;;;21.73;63.50;95274.25;5060606;28;20195;-85
2022/07/29 02:43:21;;;;;;;23.08;13.85;;;;;;;22.32;63.18;95355.44;5042844;28;20506;-86
2022/07/29 02:45:51;;;;;;;18.60;13.13;;;;;;;22.26;63.55;95352.22;5060629;28;20036;-85
2022/07/29 02:48:20;;;;;;;21.47;14.03;;;;;;;21.96;63.85;95307.72;5042214;28;20032;-85
2022/07/29 02:50:52;;;;;;;20.10;14.43;;;;;;;22.33;63.31;95351.63;5042523;28;20040;-85
2022/07/29 02:53:18;;;;;;;17.38;13.05;;;;;;;22.32;63.30;95360.84;5041599;28;20044;-85
2022/07/29 02:55:48;;;;;;;22.88;14.20;;;;;;;22.05;63.04;95323.81;5041952;28;20418;-85
2022/07/29 02:58:34;;;;;;;23.77;13.93;;;;;;;22.27;62.83;95359.19;5042253;28;20032;-85
2022/07/29 03:01:02;;;;;;;20.15;13.70;;;;;;;22.28;62.34;95365.34;5060461;28;20108;-85
2022/07/29 03:03:36;;;;;;;19.27;13.48;;;;;;;22.00;62.61;95348.34;5042268;28;20064;-85
2022/07/29 03:06:02;;;;;;;17.70;13.07;;;;;;;21.81;62.41;95332.72;5042223;28;20063;-85
2022/07/29 03:08:30;;;;;;;20.50;13.13;;;;;;;21.25;63.16;95248.16;5063910;28;20028;-85
2022/07/29 03:10:57;;;;;;;21.52;13.20;;;;;;;21.94;62.44;95321.56;5046080;28;20039;-85
2022/07/29 03:13:23;;;;;;;20.55;11.80;;;;;;;21.85;62.50;95314.69;5046282;28;20423;-85
2022/07/29 03:15:49;;;;;;;22.20;12.20;;;;;;;21.74;62.45;95300.88;5045635;28;20855;-85
2022/07/29 03:18:15;;;;;;;15.98;11.90;;;;;;;21.74;62.25;95294.72;5063295;28;20146;-85
2022/07/29 03:20:41;;;;;;;18.02;12.70;;;;;;;21.72;62.47;95288.88;5045700;28;20487;-85
2022/07/29 03:23:08;;;;;;;23.17;12.88;;;;;;;22.19;62.56;95364.72;5063944;28;20415;-85
2022/07/29 03:25:33;;;;;;;16.88;13.50;;;;;;;21.39;62.44;95241.25;5045782;28;20036;-86
2022/07/29 03:27:59;;;;;;;28.75;12.43;;;;;;;21.99;63.26;95365.66;5045493;28;20490;-85
2022/07/29 03:30:25;;;;;;;19.08;13.40;;;;;;;21.06;62.88;95252.16;5044995;28;20028;-85
2022/07/29 03:32:51;;;;;;;17.00;12.90;;;;;;;21.76;63.17;95333.72;5044780;28;20036;-86
2022/07/29 03:35:17;;;;;;;18.98;13.48;;;;;;;21.99;63.32;95362.97;5045603;28;20039;-85
2022/07/29 03:37:44;;;;;;;20.13;11.52;;;;;;;21.62;64.33;95340.63;5041820;28;20053;-85
2022/07/29 03:40:13;;;;;;;16.25;11.88;;;;;;;21.76;64.34;95366.13;5043450;28;20895;-85
2022/07/29 03:42:42;;;;;;;16.23;12.77;;;;;;;21.80;64.44;95374.34;5063286;28;20058;-85
2022/07/29 03:45:12;;;;;;;20.10;12.63;;;;;;;21.34;64.06;95275.78;5045569;28;20028;-85
2022/07/29 03:47:43;;;;;;;15.38;12.10;;;;;;;21.98;63.66;95374.88;5045148;28;20044;-85
2022/07/29 03:50:13;;;;;;;21.30;11.80;;;;;;;22.01;63.35;95364.19;5062759;28;20043;-85
2022/07/29 03:52:38;;;;;;;22.58;12.07;;;;;;;20.32;63.38;95137.38;5062898;28;20447;-85
2022/07/29 03:55:05;;;;;;;18.35;11.95;;;;;;;21.03;63.17;95238.59;5043667;28;20570;-85
2022/07/29 03:57:32;;;;;;;19.27;12.18;;;;;;;21.63;63.11;95326.78;5063414;28;20410;-85
2022/07/29 03:59:58;;;;;;;13.27;11.30;;;;;;;21.81;62.98;95360.50;5043812;28;20029;-85
2022/07/29 04:02:25;;;;;;;17.90;11.85;;;;;;;21.94;62.52;95370.16;5045521;28;20051;-85
2022/07/29 04:04:51;;;;;;;15.90;11.63;;;;;;;21.89;62.59;95356.09;5044142;28;20040;-85
2022/07/29 04:07:16;;;;;;;22.33;12.10;;;;;;;21.34;62.61;95273.88;5044474;28;20511;-85
2022/07/29 04:09:42;;;;;;;21.73;12.73;;;;;;;22.05;62.35;95365.06;5044832;28;20501;-85
2022/07/29 04:12:08;;;;;;;21.05;11.90;;;;;;;21.81;62.79;95351.63;5043969;28;20508;-85
2022/07/29 04:14:34;;;;;;;26.10;12.48;;;;;;;22.20;62.38;95387.91;5044584;28;20106;-85
2022/07/29 04:17:01;;;;;;;19.83;12.15;;;;;;;21.90;62.70;95342.25;5043861;28;20532;-85
2022/07/29 04:19:26;;;;;;;19.90;12.45;;;;;;;21.75;62.60;95315.97;5043164;28;20059;-85
2022/07/29 04:21:52;;;;;;;19.13;12.85;;;;;;;21.58;62.36;95283.06;5061628;28;20538;-85
2022/07/29 04:24:18;;;;;;;19.02;12.50;;;;;;;21.80;62.14;95325.75;5043871;28;20400;-85
2022/07/29 04:26:44;;;;;;;18.58;12.98;;;;;;;22.22;61.81;95348.59;5044482;28;20645;-85
2022/07/29 04:29:11;;;;;;;20.73;10.45;;;;;;;21.66;61.60;95277.53;5043846;28;20036;-85
2022/07/29 04:31:37;;;;;;;17.63;11.27;;;;;;;21.45;62.12;95252.59;5063798;28;20115;-85
2022/07/29 04:34:03;;;;;;;16.42;10.70;;;;;;;21.81;61.76;95322.72;5044926;28;20042;-85
2022/07/29 04:36:28;;;;;;;17.85;10.30;;;;;;;22.20;61.96;95377.09;5061904;28;20040;-85
2022/07/29 04:38:53;;;;;;;18.17;10.65;;;;;;;22.27;61.58;95378.09;5043410;28;20548;-85
2022/07/29 04:41:19;;;;;;;19.13;11.10;;;;;;;22.12;61.38;95356.41;5043380;28;20522;-85
2022/07/29 04:43:44;;;;;;;16.17;10.77;;;;;;;21.70;60.89;95275.72;5044107;28;20413;-85
2022/07/29 04:46:10;;;;;;;16.85;10.35;;;;;;;22.08;61.24;95342.81;5043987;28;20048;-86
2022/07/29 04:48:35;;;;;;;18.40;10.32;;;;;;;22.40;60.88;95392.34;5043340;28;20036;-86
2022/07/29 04:51:01;;;;;;;15.80;9.80;;;;;;;21.92;60.18;95301.41;5041632;28;20047;-85
2022/07/29 04:53:26;;;;;;;11.48;9.23;;;;;;;21.97;60.27;95328.19;5042300;28;20455;-85
2022/07/29 04:55:52;;;;;;;14.63;8.98;;;;;;;22.17;59.68;95348.84;5043015;28;20100;-85
2022/07/29 04:58:17;;;;;;;17.42;9.63;;;;;;;22.09;59.75;95328.16;5042104;28;20424;-85
2022/07/29 05:00:43;;;;;;;11.77;8.77;;;;;;;22.37;59.55;95359.81;5061012;28;20434;-85
2022/07/29 05:03:08;;;;;;;16.15;9.18;;;;;;;22.37;59.55;95360.59;5063244;28;20414;-86
2022/07/29 05:05:34;;;;;;;13.43;9.48;;;;;;;21.61;59.15;95244.59;5062564;28;20563;-85
2022/07/29 05:07:59;;;;;;;16.08;9.07;;;;;;;22.06;60.17;95346.97;5063373;28;20530;-85
2022/07/29 05:10:25;;;;;;;14.02;9.57;;;;;;;22.46;59.55;95417.19;5081290;28;20049;-85
2022/07/29 05:12:50;;;;;;;18.55;10.32;;;;;;;22.74;58.89;95407.19;5063228;28;20426;-86
2022/07/29 05:15:17;;;;;;;16.52;10.13;;;;;;;21.94;58.59;95266.75;5062778;28;20156;-85
2022/07/29 05:17:43;;;;;;;18.20;9.85;;;;;;;21.82;58.43;95237.09;5081697;28;20041;-85
2022/07/29 05:20:08;;;;;;;14.50;10.18;;;;;;;22.91;58.04;95393.38;5063146;28;20050;-85
2022/07/29 05:22:34;;;;;;;20.20;10.27;;;;;;;22.75;57.70;95356.63;5062966;28;20036;-85
2022/07/29 05:24:59;;;;;;;15.95;8.93;;;;;;;22.56;58.09;95339.13;5062918;28;20558;-86
2022/07/29 05:27:25;;;;;;;16.05;9.25;;;;;;;22.74;57.71;95353.13;5080913;28;20040;-86
2022/07/29 05:29:50;;;;;;;21.58;9.00;;;;;;;23.17;58.29;95403.72;5061910;28;20105;-86
2022/07/29 05:32:16;;;;;;;13.80;8.13;;;;;;;22.95;57.80;95361.81;5062281;28;20050;-85
2022/07/29 05:34:42;;;;;;;19.23;8.50;;;;;;;22.75;57.74;95332.28;5062710;28;20024;-84
2022/07/29 05:37:07;;;;;;;18.75;9.07;;;;;;;22.69;57.61;95296.59;5081871;28;20463;-85
2022/07/29 05:39:33;;;;;;;12.18;7.80;;;;;;;23.26;57.87;95407.06;5079724;28;20420;-85
2022/07/29 05:41:58;;;;;;;8.73;6.60;;;;;;;22.81;57.57;95374.94;5079654;28;20541;-86
2022/07/29 05:44:24;;;;;;;12.95;7.53;;;;;;;22.82;57.53;95362.22;5075669;28;20043;-85
2022/07/29 05:46:49;;;;;;;14.20;7.45;;;;;;;22.93;57.01;95361.38;5080541;28;20039;-85
2022/07/29 05:49:14;;;;;;;11.98;6.32;;;;;;;22.57;56.34;95304.78;5065440;28;20486;-85
2022/07/29 05:51:40;;;;;;;10.27;5.65;;;;;;;22.65;56.29;95295.72;5063482;28;20487;-85
2022/07/29 05:54:06;;;;;;;9.88;6.82;;;;;;;23.46;55.77;95416.03;5061936;28;20085;-85
2022/07/29 05:56:31;;;;;;;10.85;6.72;;;;;;;21.76;56.20;95169.06;5061836;28;20051;-85
2022/07/29 05:58:56;;;;;;;8.50;5.85;;;;;;;22.67;56.73;95310.44;5062086;28;20078;-85
2022/07/29 06:01:22;;;;;;;12.23;6.82;;;;;;;23.38;56.48;95398.84;5062073;28;20047;-85
2022/07/29 06:03:47;;;;;;;11.55;7.22;;;;;;;23.20;56.73;95383.28;5057967;28;20469;-85
2022/07/29 06:06:13;;;;;;;10.52;6.78;;;;;;;23.44;56.47;95410.19;5058216;28;20482;-85
2022/07/29 06:08:39;;;;;;;12.02;7.32;;;;;;;23.05;56.18;95336.94;5051814;28;20041;-85
2022/07/29 06:11:06;;;;;;;14.98;6.72;;;;;;;23.56;56.11;95415.56;5060196;28;20572;-85
2022/07/29 06:13:32;;;;;;;11.45;7.07;;;;;;;23.64;55.82;95416.50;5058832;28;20036;-85
2022/07/29 06:15:58;;;;;;;11.60;6.97;;;;;;;23.27;56.72;95369.94;5078628;28;20038;-86
2022/07/29 06:18:26;;;;;;;17.25;8.07;;;;;;;23.58;56.81;95417.88;5062746;28;20040;-86
2022/07/29 06:20:53;;;;;;;14.23;6.95;;;;;;;23.66;56.48;95422.34;5063361;28;20040;-86
2022/07/29 06:23:19;;;;;;;17.85;6.82;;;;;;;23.61;56.18;95417.19;5081697;28;20044;-86
2022/07/29 06:25:44;;;;;;;12.23;6.80;;;;;;;23.33;56.79;95371.25;5064764;28;20044;-87
2022/07/29 06:28:10;;;;;;;10.80;7.78;;;;;;;22.56;57.07;95265.38;5065241;28;20411;-86
2022/07/29 06:30:35;;;;;;;10.10;6.97;;;;;;;23.06;57.14;95327.69;5065594;28;20506;-86
2022/07/29 06:33:01;;;;;;;13.38;6.93;;;;;;;23.32;56.78;95364.28;5065070;28;20028;-86
2022/07/29 06:35:27;;;;;;;18.05;7.63;;;;;;;23.67;56.37;95394.91;5063432;28;20111;-86
2022/07/29 06:37:53;;;;;;;16.55;7.18;;;;;;;23.58;56.71;95382.69;5080336;28;20079;-86
2022/07/29 06:43:02;;;;;;;10.57;6.63;;;;;;;23.51;56.63;95366.28;5080260;28;20066;-86
2022/07/29 06:45:28;;;;;;;10.73;6.47;;;;;;;23.52;56.54;95352.41;5062797;28;20512;-85
2022/07/29 06:47:54;;;;;;;12.95;6.18;;;;;;;23.55;56.36;95359.03;5061725;28;20028;-86
2022/07/29 06:50:20;;;;;;;9.60;6.15;;;;;;;23.44;55.76;95337.88;5080401;28;20173;-86
2022/07/29 06:52:45;;;;;;;9.60;6.25;;;;;;;23.46;55.69;95345.66;5062265;28;20036;-86
2022/07/29 06:55:10;;;;;;;10.85;6.38;;;;;;;23.58;55.75;95342.88;5062810;28;20040;-86
2022/07/29 06:57:36;;;;;;;16.35;6.22;;;;;;;23.73;56.13;95349.38;5079445;28;20029;-86
2022/07/29 07:00:04;;;;;;;9.35;6.35;;;;;;;24.02;56.63;95407.72;5061806;28;20039;-86
2022/07/29 07:02:30;;;;;;;12.25;5.38;;;;;;;23.84;55.23;95361.25;5074244;28;20035;-86
2022/07/29 07:04:55;;;;;;;11.30;5.30;;;;;;;23.95;54.77;95359.59;5061398;28;20047;-86
2022/07/29 07:07:21;;;;;;;8.85;6.03;;;;;;;23.90;54.68;95343.59;5079660;28;20040;-86
2022/07/29 07:09:46;;;;;;;10.23;6.32;;;;;;;24.34;54.90;95400.28;5061579;28;20203;-86
2022/07/29 07:12:11;;;;;;;10.15;6.18;;;;;;;23.71;54.59;95301.03;5058782;28;20039;-86
2022/07/29 07:14:37;;;;;;;9.50;5.82;;;;;;;24.14;54.37;95356.88;5052379;28;20425;-86
2022/07/29 07:17:03;;;;;;;15.10;6.22;;;;;;;24.32;54.61;95386.31;5059817;28;20594;-86
2022/07/29 07:19:29;;;;;;;18.20;6.60;;;;;;;24.07;53.92;95324.22;5080294;28;20581;-87
2022/07/29 07:21:54;;;;;;;10.20;5.72;;;;;;;24.49;53.43;95364.97;5061524;28;20040;-86
2022/07/29 07:24:20;;;;;;;11.52;5.80;;;;;;;24.40;53.94;95355.50;5049254;28;20037;-86
2022/07/29 07:26:45;;;;;;;9.20;5.32;;;;;;;24.22;53.12;95311.78;5058339;28;20048;-86
2022/07/29 07:29:11;;;;;;;7.25;5.40;;;;;;;24.51;52.30;95351.84;5078519;28;20051;-86
2022/07/29 07:31:37;;;;;;;9.35;5.22;;;;;;;24.25;52.85;95331.97;5079469;28;20064;-86
2022/07/29 07:34:03;;;;;;;10.60;5.18;;;;;;;24.34;52.49;95319.75;5061080;28;20043;-85
2022/07/29 07:36:28;;;;;;;9.55;5.30;;;;;;;24.68;52.53;95355.28;5060764;28;20036;-86
2022/07/29 07:38:54;;;;;;;11.60;5.88;;;;;;;23.38;52.04;95163.41;5093706;28;20060;-85
2022/07/29 07:41:21;;;;;;;8.48;5.43;;;;;;;24.79;52.91;95395.03;5081459;28;20117;-85
2022/07/29 07:43:46;;;;;;;13.65;6.28;;;;;;;24.49;52.86;95332.44;5099525;28;20126;-85
2022/07/29 07:46:12;;;;;;;9.85;5.32;;;;;;;24.76;52.50;95386.81;5081654;28;20123;-85
2022/07/29 07:48:37;;;;;;;11.65;5.28;;;;;;;24.53;52.32;95338.75;5081013;28;20065;-86
2022/07/29 07:51:03;;;;;;;11.18;5.28;;;;;;;24.73;52.20;95355.75;5081099;28;20496;-86
2022/07/29 07:53:29;;;;;;;9.93;5.43;;;;;;;24.48;51.46;95292.94;5094822;28;20119;-85
2022/07/29 07:55:55;;;;;;;8.88;4.97;;;;;;;24.76;51.75;95329.84;5094344;28;20542;-86
2022/07/29 07:58:20;;;;;;;8.60;4.90;;;;;;;24.68;51.78;95317.31;5084851;28;20073;-85
2022/07/29 08:00:46;;;;;;;7.07;4.68;;;;;;;25.07;51.20;95364.94;5089704;28;20682;-85
2022/07/29 08:03:13;;;;;;;7.00;4.68;;;;;;;24.98;50.20;95331.81;5084880;28;20123;-85
2022/07/29 08:05:39;;;;;;;9.55;4.07;;;;;;;24.87;51.00;95333.56;5097827;28;20036;-85
2022/07/29 08:08:05;;;;;;;10.40;4.90;;;;;;;23.05;49.92;95044.81;5084883;28;20035;-85
2022/07/29 08:13:14;;;;;;;9.00;5.20;;;;;;;25.13;49.74;95333.63;5103614;28;20080;-86
2022/07/29 08:15:41;;;;;;;8.93;4.80;;;;;;;24.94;50.42;95288.38;5104097;28;20027;-85
2022/07/29 08:18:07;;;;;;;7.45;4.50;;;;;;;25.43;49.33;95370.97;5102949;28;20051;-85
2022/07/29 08:20:35;;;;;;;9.07;4.50;;;;;;;25.21;49.47;95332.63;5084573;28;20237;-85
2022/07/29 08:23:01;;;;;;;8.02;4.70;;;;;;;25.43;49.62;95349.22;5083930;28;20151;-85
2022/07/29 08:25:27;;;;;;;9.38;4.88;;;;;;;25.37;49.47;95316.19;5101640;28;20039;-85
2022/07/29 08:27:52;;;;;;;8.85;4.75;;;;;;;25.10;49.18;95268.47;5084218;28;20069;-85
2022/07/29 08:30:18;;;;;;;8.40;4.75;;;;;;;25.77;48.28;95340.09;5083450;28;20447;-85
2022/07/29 08:32:43;;;;;;;8.40;5.57;;;;;;;25.55;47.95;95305.59;5084429;28;20035;-85
2022/07/29 08:35:09;;;;;;;11.80;4.97;;;;;;;25.71;47.39;95330.69;5082983;28;20462;-85
2022/07/29 08:37:34;;;;;;;6.55;4.30;;;;;;;25.93;47.25;95338.00;5083143;28;20051;-86
2022/07/29 08:40:00;;;;;;;6.03;4.78;;;;;;;25.88;47.10;95340.25;5085007;28;20036;-85
2022/07/29 08:42:25;;;;;;;7.75;4.28;;;;;;;25.30;46.94;95238.16;5103325;28;20480;-85
2022/07/29 08:44:51;;;;;;;4.15;3.50;;;;;;;26.08;46.88;95356.06;5102661;28;20423;-85
2022/07/29 08:47:16;;;;;;;5.93;3.53;;;;;;;25.87;46.02;95314.22;5084481;28;20043;-85
2022/07/29 08:49:43;;;;;;;5.43;3.95;;;;;;;26.15;46.00;95339.06;5085147;28;20605;-85
2022/07/29 08:52:11;;;;;;;5.88;3.53;;;;;;;25.80;45.30;95273.38;5102988;28;20036;-85
2022/07/29 08:54:43;;;;;;;5.68;3.67;;;;;;;26.23;45.07;95335.28;5087077;28;20031;-86
2022/07/29 08:57:09;;;;;;;6.50;3.35;;;;;;;26.06;45.59;95303.22;5086102;28;20074;-85
2022/07/29 08:59:37;;;;;;;8.57;4.28;;;;;;;26.00;45.49;95272.88;5086239;28;20178;-85
2022/07/29 09:02:03;;;;;;;9.07;4.18;;;;;;;26.49;44.71;95337.16;5083542;28;20035;-85
2022/07/29 09:04:32;;;;;;;6.50;4.03;;;;;;;26.75;44.93;95363.50;5080911;28;20972;-85
2022/07/29 09:07:00;;;;;;;8.15;3.50;;;;;;;26.84;44.03;95364.00;5083578;28;20562;-85
2022/07/29 09:09:26;;;;;;;10.93;4.18;;;;;;;26.46;43.71;95302.59;5102813;28;20585;-86
2022/07/29 09:11:53;;;;;;;5.80;3.60;;;;;;;26.61;42.70;95314.41;5102246;28;20023;-86
2022/07/29 09:14:18;;;;;;;5.75;3.47;;;;;;;26.51;42.12;95277.75;5083402;28;20372;-87
2022/07/29 09:16:50;;;;;;;6.53;3.40;;;;;;;26.89;41.57;95352.78;5103386;28;20038;-86
2022/07/29 09:19:20;;;;;;;6.63;3.53;;;;;;;26.80;41.83;95325.84;5084433;28;20041;-85
2022/07/29 09:21:58;;;;;;;5.63;3.72;;;;;;;26.74;42.03;95315.69;5084779;28;20138;-85
2022/07/29 09:24:44;;;;;;;11.18;3.78;;;;;;;26.99;41.73;95337.75;5102667;28;20036;-85
2022/07/29 09:27:22;;;;;;;7.53;3.40;;;;;;;26.54;42.59;95289.84;5101964;28;20113;-85
2022/07/29 09:30:10;;;;;;;6.55;3.92;;;;;;;27.10;42.25;95357.66;5084706;28;20046;-85
2022/07/29 09:32:59;;;;;;;4.97;3.95;;;;;;;26.63;42.34;95265.81;5084582;28;20058;-85
2022/07/29 09:35:26;;;;;;;7.93;4.40;;;;;;;27.14;42.51;95337.50;5085179;28;20515;-86
2022/07/29 09:37:52;;;;;;;5.25;3.67;;;;;;;27.32;41.72;95345.81;5082028;28;20067;-85
2022/07/29 09:40:20;;;;;;;9.38;4.55;;;;;;;26.43;41.97;95202.69;5110755;28;20024;-85
2022/07/29 09:42:46;;;;;;;6.68;3.85;;;;;;;27.11;42.63;95313.75;5097621;28;20040;-86
2022/07/29 09:45:12;;;;;;;8.23;5.35;;;;;;;27.10;42.25;95271.34;5072474;28;20036;-85
2022/07/29 09:47:42;;;;;;;8.07;5.07;;;;;;;27.65;42.91;95343.00;5090822;28;20091;-86
2022/07/29 09:50:08;;;;;;;6.78;4.57;;;;;;;27.00;42.09;95233.94;5069792;28;20835;-85
2022/07/29 09:52:45;;;;;;;10.82;4.43;;;;;;;27.80;40.03;95338.41;5071363;28;20036;-85
2022/07/29 09:55:10;;;;;;;4.50;3.58;;;;;;;27.98;39.02;95275.84;5089944;28;20064;-85
2022/07/29 09:57:36;;;;;;;6.32;3.95;;;;;;;28.62;38.51;95241.38;5071366;28;20046;-87
2022/07/29 10:00:14;;;;;;;4.32;3.20;;;;;;;29.95;35.63;95287.44;5074749;28;20036;-85
2022/07/29 10:02:43;;;;;;;8.98;3.35;;;;;;;31.08;34.58;95319.03;5086021;28;20036;-85
2022/07/29 10:05:26;;;;;;;7.72;3.42;;;;;;;32.05;32.90;95320.53;5081614;28;20116;-85
2022/07/29 10:07:58;;;;;;;3.80;3.05;;;;;;;32.70;31.15;95261.00;5061472;28;20043;-86
2022/07/29 10:10:30;;;;;;;6.78;3.30;;;;;;;33.70;30.60;95293.19;5062295;28;20150;-86
2022/07/29 10:13:02;;;;;;;10.35;3.53;;;;;;;34.38;28.84;95317.53;5063065;28;20730;-86
2022/07/29 10:15:30;;;;;;;3.25;2.50;;;;;;;34.99;27.56;95311.53;5058136;28;20457;-86
2022/07/29 10:17:56;;;;;;;3.65;2.70;;;;;;;35.43;26.92;95299.09;5059009;28;20490;-85
2022/07/29 10:20:23;;;;;;;5.68;2.92;;;;;;;35.50;27.40;95302.47;5062451;28;20210;-86
2022/07/29 10:22:50;;;;;;;6.03;2.70;;;;;;;35.98;26.89;95262.22;5062430;28;20425;-86
2022/07/29 10:25:16;;;;;;;5.40;2.80;;;;;;;36.22;26.68;95296.69;5080531;28;20123;-86
2022/07/29 10:27:43;;;;;;;4.80;2.40;;;;;;;36.05;25.63;95239.19;5062481;28;20368;-85
2022/07/29 10:30:12;;;;;;;5.10;2.72;;;;;;;36.48;25.18;95235.97;5061827;28;20552;-86
2022/07/29 10:32:56;;;;;;;7.82;2.72;;;;;;;37.26;24.35;95284.16;5058839;28;20033;-86
2022/07/29 10:35:34;;;;;;;8.68;3.17;;;;;;;37.32;23.57;95285.13;5058510;28;20044;-86
2022/07/29 10:38:17;;;;;;;6.53;2.65;;;;;;;37.22;24.10;95230.97;5081547;28;20055;-86
2022/07/29 10:41:27;;;;;;;3.42;2.65;;;;;;;37.40;23.40;95277.38;5082506;28;20036;-86
2022/07/29 10:44:23;;;;;;;2.83;2.33;;;;;;;37.14;23.32;95179.88;5081556;28;20036;-86
2022/07/29 10:46:50;;;;;;;5.32;3.08;;;;;;;37.18;23.53;95196.34;5079026;28;20058;-86
2022/07/29 10:49:20;;;;;;;3.58;2.63;;;;;;;37.12;23.20;95174.00;5099615;28;20772;-85
2022/07/29 10:51:57;;;;;;;;;;;;;;;37.90;23.34;95270.97;5075882;28;20032;-85
2022/07/29 10:54:41;;;;;;;4.32;2.58;;;;;;;37.79;23.61;95268.56;5061884;28;20329;-86
2022/07/29 10:57:15;;;;;;;5.57;3.30;;;;;;;37.56;22.77;95260.66;5042023;28;20150;-86
2022/07/29 10:59:43;;;;;;;4.68;3.10;;;;;;;37.10;23.60;95162.59;5041486;28;20040;-86
2022/07/29 11:02:33;;;;;;;4.15;2.65;;;;;;;37.85;23.25;95250.16;5041474;28;20089;-86
2022/07/29 11:05:06;;;;;;;7.60;3.00;;;;;;;37.65;23.81;95254.47;5042361;28;20063;-85
2022/07/29 11:07:35;;;;;;;6.82;2.83;;;;;;;37.53;23.43;95194.38;5041841;28;20058;-86
2022/07/29 11:10:14;;;;;;;5.15;3.00;;;;;;;37.73;23.86;95248.22;5041896;28;20116;-86
2022/07/29 11:12:42;;;;;;;5.10;2.97;;;;;;;37.86;23.05;95250.94;5059978;28;20475;-86
2022/07/29 11:15:21;;;;;;;5.82;3.00;;;;;;;37.30;23.58;95179.75;5042079;28;20115;-86
2022/07/29 11:17:53;;;;;;;6.57;2.70;;;;;;;37.86;23.00;95245.41;5041928;28;20062;-86
2022/07/29 11:20:41;;;;;;;3.35;2.70;;;;;;;37.57;23.71;95236.53;5054074;28;20116;-86
2022/07/29 11:23:31;;;;;;;5.85;4.40;;;;;;;37.78;23.66;95236.59;5078413;28;20088;-86
2022/07/29 11:26:27;;;;;;;6.15;3.30;;;;;;;37.82;24.20;95233.69;5057503;28;20196;-87
2022/07/29 11:29:22;;;;;;;4.35;3.05;;;;;;;37.91;23.87;95233.78;5062888;28;20043;-86
2022/07/29 11:31:54;;;;;;;8.00;4.47;;;;;;;37.70;23.76;95226.19;5064843;28;20097;-86
2022/07/29 11:34:36;;;;;;;7.75;3.75;;;;;;;37.68;23.30;95223.91;5064657;28;20557;-87
2022/07/29 11:37:05;;;;;;;5.35;3.17;;;;;;;37.88;22.89;95231.13;5064884;28;20050;-86
2022/07/29 11:39:30;;;;;;;8.25;3.20;;;;;;;37.73;23.52;95206.72;5097286;28;20052;-86
2022/07/29 11:42:20;;;;;;;7.10;3.30;;;;;;;37.73;23.61;95228.09;5086044;28;20096;-86